sensor_id;sensor_type;location;lat;lon;timestamp;P1;durP1;ratioP1;P2;durP2;ratioP2
40757;SDS011;26462;47.384;19.218;2023-11-21T00:00:08;36.50;;;18.48;;
40757;SDS011;26462;47.384;19.218;2023-11-21T00:02:39;39.95;;;18.75;;
40757;SDS011;26462;47.384;19.218;2023-11-21T00:05:08;42.03;;;19.30;;
40757;SDS011;26462;47.384;19.218;2023-11-21T00:07:37;44.17;;;19.20;;
40757;SDS011;26462;47.384;19.218;2023-11-21T00:10:06;41.22;;;19.05;;
40757;SDS011;26462;47.384;19.218;2023-11-21T00:12:38;38.40;;;18.40;;
40757;SDS011;26462;47.384;19.218;2023-11-21T00:15:09;42.92;;;19.88;;
40757;SDS011;26462;47.384;19.218;2023-11-21T00:17:39;36.80;;;17.67;;
40757;SDS011;26462;47.384;19.218;2023-11-21T00:20:08;34.50;;;16.15;;
40757;SDS011;26462;47.384;19.218;2023-11-21T00:22:40;39.13;;;17.83;;
40757;SDS011;26462;47.384;19.218;2023-11-21T00:25:08;39.30;;;17.70;;
40757;SDS011;26462;47.384;19.218;2023-11-21T00:27:38;36.35;;;16.98;;
40757;SDS011;26462;47.384;19.218;2023-11-21T00:30:07;37.22;;;16.58;;
40757;SDS011;26462;47.384;19.218;2023-11-21T00:32:37;33.80;;;15.52;;
40757;SDS011;26462;47.384;19.218;2023-11-21T00:35:07;37.17;;;16.80;;
40757;SDS011;26462;47.384;19.218;2023-11-21T00:37:35;30.75;;;15.43;;
40757;SDS011;26462;47.384;19.218;2023-11-21T00:40:06;31.02;;;15.10;;
40757;SDS011;26462;47.384;19.218;2023-11-21T00:42:36;35.67;;;15.02;;
40757;SDS011;26462;47.384;19.218;2023-11-21T00:45:06;33.05;;;14.35;;
40757;SDS011;26462;47.384;19.218;2023-11-21T00:47:36;30.55;;;15.00;;
40757;SDS011;26462;47.384;19.218;2023-11-21T00:50:06;31.13;;;15.88;;
40757;SDS011;26462;47.384;19.218;2023-11-21T00:52:36;31.88;;;15.80;;
40757;SDS011;26462;47.384;19.218;2023-11-21T00:55:05;32.97;;;15.52;;
40757;SDS011;26462;47.384;19.218;2023-11-21T00:57:34;32.17;;;14.82;;
40757;SDS011;26462;47.384;19.218;2023-11-21T01:00:06;31.00;;;14.10;;
40757;SDS011;26462;47.384;19.218;2023-11-21T01:02:40;30.95;;;14.88;;
40757;SDS011;26462;47.384;19.218;2023-11-21T01:05:08;35.22;;;17.13;;
40757;SDS011;26462;47.384;19.218;2023-11-21T01:07:37;34.47;;;15.52;;
40757;SDS011;26462;47.384;19.218;2023-11-21T01:10:05;33.00;;;16.17;;
40757;SDS011;26462;47.384;19.218;2023-11-21T01:12:35;37.90;;;16.02;;
40757;SDS011;26462;47.384;19.218;2023-11-21T01:15:06;39.05;;;16.27;;
40757;SDS011;26462;47.384;19.218;2023-11-21T01:17:35;36.13;;;17.38;;
40757;SDS011;26462;47.384;19.218;2023-11-21T01:20:05;38.33;;;16.00;;
40757;SDS011;26462;47.384;19.218;2023-11-21T01:22:39;34.20;;;15.60;;
40757;SDS011;26462;47.384;19.218;2023-11-21T01:25:08;35.00;;;16.10;;
40757;SDS011;26462;47.384;19.218;2023-11-21T01:27:37;35.22;;;16.83;;
40757;SDS011;26462;47.384;19.218;2023-11-21T01:30:07;39.35;;;18.17;;
40757;SDS011;26462;47.384;19.218;2023-11-21T01:32:37;39.97;;;19.00;;
40757;SDS011;26462;47.384;19.218;2023-11-21T01:35:06;34.17;;;16.90;;
40757;SDS011;26462;47.384;19.218;2023-11-21T01:37:37;34.63;;;16.13;;
40757;SDS011;26462;47.384;19.218;2023-11-21T01:40:06;32.33;;;16.33;;
40757;SDS011;26462;47.384;19.218;2023-11-21T01:42:40;30.80;;;15.50;;
40757;SDS011;26462;47.384;19.218;2023-11-21T01:45:11;32.05;;;15.20;;
40757;SDS011;26462;47.384;19.218;2023-11-21T01:47:40;34.00;;;15.85;;
40757;SDS011;26462;47.384;19.218;2023-11-21T01:50:12;35.08;;;16.05;;
40757;SDS011;26462;47.384;19.218;2023-11-21T01:52:44;34.75;;;16.50;;
40757;SDS011;26462;47.384;19.218;2023-11-21T01:55:14;28.17;;;13.55;;
40757;SDS011;26462;47.384;19.218;2023-11-21T01:57:54;32.97;;;14.63;;
40757;SDS011;26462;47.384;19.218;2023-11-21T02:00:26;32.20;;;15.23;;
40757;SDS011;26462;47.384;19.218;2023-11-21T02:02:56;29.33;;;14.57;;
40757;SDS011;26462;47.384;19.218;2023-11-21T02:05:26;33.08;;;16.60;;
40757;SDS011;26462;47.384;19.218;2023-11-21T02:07:57;33.47;;;14.73;;
40757;SDS011;26462;47.384;19.218;2023-11-21T02:10:27;32.33;;;15.23;;
40757;SDS011;26462;47.384;19.218;2023-11-21T02:12:58;33.45;;;14.05;;
40757;SDS011;26462;47.384;19.218;2023-11-21T02:15:30;33.35;;;15.35;;
40757;SDS011;26462;47.384;19.218;2023-11-21T02:17:59;30.10;;;14.63;;
40757;SDS011;26462;47.384;19.218;2023-11-21T02:20:30;31.75;;;15.30;;
40757;SDS011;26462;47.384;19.218;2023-11-21T02:25:33;30.02;;;14.38;;
40757;SDS011;26462;47.384;19.218;2023-11-21T02:28:04;31.75;;;14.93;;
40757;SDS011;26462;47.384;19.218;2023-11-21T02:30:33;32.25;;;15.18;;
40757;SDS011;26462;47.384;19.218;2023-11-21T02:33:03;29.58;;;13.85;;
40757;SDS011;26462;47.384;19.218;2023-11-21T02:35:32;30.25;;;14.48;;
40757;SDS011;26462;47.384;19.218;2023-11-21T02:38:01;31.17;;;14.32;;
40757;SDS011;26462;47.384;19.218;2023-11-21T02:40:32;30.80;;;14.50;;
40757;SDS011;26462;47.384;19.218;2023-11-21T02:43:01;28.67;;;14.30;;
40757;SDS011;26462;47.384;19.218;2023-11-21T02:45:30;26.50;;;13.45;;
40757;SDS011;26462;47.384;19.218;2023-11-21T02:47:58;26.25;;;14.00;;
40757;SDS011;26462;47.384;19.218;2023-11-21T02:50:26;32.45;;;14.50;;
40757;SDS011;26462;47.384;19.218;2023-11-21T02:52:56;30.13;;;15.52;;
40757;SDS011;26462;47.384;19.218;2023-11-21T02:55:28;34.00;;;15.73;;
40757;SDS011;26462;47.384;19.218;2023-11-21T02:57:57;30.83;;;14.48;;
40757;SDS011;26462;47.384;19.218;2023-11-21T03:00:27;31.25;;;15.23;;
40757;SDS011;26462;47.384;19.218;2023-11-21T03:02:55;30.90;;;15.65;;
40757;SDS011;26462;47.384;19.218;2023-11-21T03:05:25;30.13;;;14.27;;
40757;SDS011;26462;47.384;19.218;2023-11-21T03:07:55;29.60;;;14.48;;
40757;SDS011;26462;47.384;19.218;2023-11-21T03:10:25;30.65;;;15.27;;
40757;SDS011;26462;47.384;19.218;2023-11-21T03:12:56;32.20;;;15.50;;
40757;SDS011;26462;47.384;19.218;2023-11-21T03:15:24;34.08;;;16.45;;
40757;SDS011;26462;47.384;19.218;2023-11-21T03:17:53;34.50;;;16.40;;
40757;SDS011;26462;47.384;19.218;2023-11-21T03:20:22;33.97;;;16.13;;
40757;SDS011;26462;47.384;19.218;2023-11-21T03:22:52;37.53;;;16.20;;
40757;SDS011;26462;47.384;19.218;2023-11-21T03:25:20;34.83;;;16.23;;
40757;SDS011;26462;47.384;19.218;2023-11-21T03:27:51;32.90;;;17.02;;
40757;SDS011;26462;47.384;19.218;2023-11-21T03:30:21;34.17;;;17.38;;
40757;SDS011;26462;47.384;19.218;2023-11-21T03:32:49;38.25;;;17.30;;
40757;SDS011;26462;47.384;19.218;2023-11-21T03:35:18;35.60;;;16.77;;
40757;SDS011;26462;47.384;19.218;2023-11-21T03:37:47;41.08;;;18.45;;
40757;SDS011;26462;47.384;19.218;2023-11-21T03:40:16;42.78;;;18.65;;
40757;SDS011;26462;47.384;19.218;2023-11-21T03:42:44;47.85;;;21.05;;
40757;SDS011;26462;47.384;19.218;2023-11-21T03:45:12;42.10;;;18.73;;
40757;SDS011;26462;47.384;19.218;2023-11-21T03:47:42;49.97;;;21.20;;
40757;SDS011;26462;47.384;19.218;2023-11-21T03:50:11;42.00;;;18.80;;
40757;SDS011;26462;47.384;19.218;2023-11-21T03:52:39;37.22;;;18.25;;
40757;SDS011;26462;47.384;19.218;2023-11-21T03:55:08;35.53;;;19.15;;
40757;SDS011;26462;47.384;19.218;2023-11-21T03:57:41;35.15;;;17.17;;
40757;SDS011;26462;47.384;19.218;2023-11-21T04:00:10;35.60;;;16.35;;
40757;SDS011;26462;47.384;19.218;2023-11-21T04:02:39;35.35;;;16.85;;
40757;SDS011;26462;47.384;19.218;2023-11-21T04:05:09;44.33;;;22.13;;
40757;SDS011;26462;47.384;19.218;2023-11-21T04:07:38;37.97;;;20.20;;
40757;SDS011;26462;47.384;19.218;2023-11-21T04:10:07;40.90;;;20.10;;
40757;SDS011;26462;47.384;19.218;2023-11-21T04:12:38;43.53;;;20.80;;
40757;SDS011;26462;47.384;19.218;2023-11-21T04:15:07;47.28;;;20.92;;
40757;SDS011;26462;47.384;19.218;2023-11-21T04:17:37;37.95;;;19.02;;
40757;SDS011;26462;47.384;19.218;2023-11-21T04:20:06;39.53;;;19.25;;
40757;SDS011;26462;47.384;19.218;2023-11-21T04:22:39;45.13;;;21.63;;
40757;SDS011;26462;47.384;19.218;2023-11-21T04:25:11;38.45;;;18.77;;
40757;SDS011;26462;47.384;19.218;2023-11-21T04:27:43;41.30;;;20.42;;
40757;SDS011;26462;47.384;19.218;2023-11-21T04:30:12;41.55;;;19.98;;
40757;SDS011;26462;47.384;19.218;2023-11-21T04:32:41;44.30;;;19.27;;
40757;SDS011;26462;47.384;19.218;2023-11-21T04:35:10;41.88;;;18.38;;
40757;SDS011;26462;47.384;19.218;2023-11-21T04:37:39;42.80;;;19.13;;
40757;SDS011;26462;47.384;19.218;2023-11-21T04:40:08;50.35;;;19.90;;
40757;SDS011;26462;47.384;19.218;2023-11-21T04:42:38;45.78;;;20.35;;
40757;SDS011;26462;47.384;19.218;2023-11-21T04:45:06;44.10;;;19.40;;
40757;SDS011;26462;47.384;19.218;2023-11-21T04:47:39;37.15;;;17.73;;
40757;SDS011;26462;47.384;19.218;2023-11-21T04:50:08;33.97;;;16.40;;
40757;SDS011;26462;47.384;19.218;2023-11-21T04:52:37;35.75;;;16.27;;
40757;SDS011;26462;47.384;19.218;2023-11-21T04:55:07;33.65;;;16.05;;
40757;SDS011;26462;47.384;19.218;2023-11-21T04:57:37;33.30;;;15.83;;
40757;SDS011;26462;47.384;19.218;2023-11-21T05:00:09;41.40;;;18.02;;
40757;SDS011;26462;47.384;19.218;2023-11-21T05:02:39;55.10;;;23.35;;
40757;SDS011;26462;47.384;19.218;2023-11-21T05:05:08;59.65;;;26.58;;
40757;SDS011;26462;47.384;19.218;2023-11-21T05:07:37;48.55;;;22.48;;
40757;SDS011;26462;47.384;19.218;2023-11-21T05:10:08;45.83;;;23.08;;
40757;SDS011;26462;47.384;19.218;2023-11-21T05:12:39;50.15;;;21.00;;
40757;SDS011;26462;47.384;19.218;2023-11-21T05:15:08;39.47;;;18.40;;
40757;SDS011;26462;47.384;19.218;2023-11-21T05:17:37;42.00;;;18.80;;
40757;SDS011;26462;47.384;19.218;2023-11-21T05:20:09;34.95;;;16.30;;
40757;SDS011;26462;47.384;19.218;2023-11-21T05:22:39;39.22;;;16.08;;
40757;SDS011;26462;47.384;19.218;2023-11-21T05:25:10;34.63;;;17.15;;
40757;SDS011;26462;47.384;19.218;2023-11-21T05:27:39;38.53;;;18.08;;
40757;SDS011;26462;47.384;19.218;2023-11-21T05:30:07;38.53;;;16.42;;
40757;SDS011;26462;47.384;19.218;2023-11-21T05:32:38;37.75;;;15.50;;
40757;SDS011;26462;47.384;19.218;2023-11-21T05:35:09;39.22;;;17.83;;
40757;SDS011;26462;47.384;19.218;2023-11-21T05:37:42;44.08;;;18.02;;
40757;SDS011;26462;47.384;19.218;2023-11-21T05:40:13;33.83;;;15.40;;
40757;SDS011;26462;47.384;19.218;2023-11-21T05:42:43;32.03;;;15.45;;
40757;SDS011;26462;47.384;19.218;2023-11-21T05:45:13;30.85;;;15.98;;
40757;SDS011;26462;47.384;19.218;2023-11-21T05:47:42;31.70;;;14.93;;
40757;SDS011;26462;47.384;19.218;2023-11-21T05:50:13;27.02;;;13.15;;
40757;SDS011;26462;47.384;19.218;2023-11-21T05:52:43;34.17;;;15.45;;
40757;SDS011;26462;47.384;19.218;2023-11-21T05:55:14;32.40;;;14.23;;
40757;SDS011;26462;47.384;19.218;2023-11-21T05:57:43;28.55;;;13.70;;
40757;SDS011;26462;47.384;19.218;2023-11-21T06:00:12;35.47;;;14.65;;
40757;SDS011;26462;47.384;19.218;2023-11-21T06:02:48;33.00;;;15.25;;
40757;SDS011;26462;47.384;19.218;2023-11-21T06:05:20;32.22;;;15.13;;
40757;SDS011;26462;47.384;19.218;2023-11-21T06:07:51;37.03;;;16.77;;
40757;SDS011;26462;47.384;19.218;2023-11-21T06:10:22;34.55;;;16.67;;
40757;SDS011;26462;47.384;19.218;2023-11-21T06:12:52;34.67;;;14.68;;
40757;SDS011;26462;47.384;19.218;2023-11-21T06:15:20;29.23;;;14.55;;
40757;SDS011;26462;47.384;19.218;2023-11-21T06:17:50;32.38;;;15.95;;
40757;SDS011;26462;47.384;19.218;2023-11-21T06:20:20;34.10;;;15.90;;
40757;SDS011;26462;47.384;19.218;2023-11-21T06:22:50;32.58;;;15.57;;
40757;SDS011;26462;47.384;19.218;2023-11-21T06:25:19;35.35;;;15.73;;
40757;SDS011;26462;47.384;19.218;2023-11-21T06:27:49;30.77;;;14.57;;
40757;SDS011;26462;47.384;19.218;2023-11-21T06:30:20;33.17;;;15.30;;
40757;SDS011;26462;47.384;19.218;2023-11-21T06:32:50;31.92;;;15.38;;
40757;SDS011;26462;47.384;19.218;2023-11-21T06:35:19;29.73;;;14.73;;
40757;SDS011;26462;47.384;19.218;2023-11-21T06:37:48;28.45;;;14.95;;
40757;SDS011;26462;47.384;19.218;2023-11-21T06:40:18;41.88;;;17.25;;
40757;SDS011;26462;47.384;19.218;2023-11-21T06:42:47;37.15;;;16.15;;
40757;SDS011;26462;47.384;19.218;2023-11-21T06:45:18;34.53;;;15.73;;
40757;SDS011;26462;47.384;19.218;2023-11-21T06:47:47;32.25;;;15.35;;
40757;SDS011;26462;47.384;19.218;2023-11-21T06:50:16;30.75;;;14.45;;
40757;SDS011;26462;47.384;19.218;2023-11-21T06:52:45;30.85;;;14.20;;
40757;SDS011;26462;47.384;19.218;2023-11-21T06:55:13;34.13;;;14.43;;
40757;SDS011;26462;47.384;19.218;2023-11-21T06:57:42;29.77;;;14.40;;
40757;SDS011;26462;47.384;19.218;2023-11-21T07:00:13;36.58;;;16.27;;
40757;SDS011;26462;47.384;19.218;2023-11-21T07:02:45;34.40;;;15.40;;
40757;SDS011;26462;47.384;19.218;2023-11-21T07:05:14;30.88;;;14.38;;
40757;SDS011;26462;47.384;19.218;2023-11-21T07:07:47;33.10;;;14.57;;
40757;SDS011;26462;47.384;19.218;2023-11-21T07:10:17;31.40;;;15.43;;
40757;SDS011;26462;47.384;19.218;2023-11-21T07:12:45;38.92;;;16.50;;
40757;SDS011;26462;47.384;19.218;2023-11-21T07:15:15;45.70;;;19.50;;
40757;SDS011;26462;47.384;19.218;2023-11-21T07:17:46;43.05;;;18.92;;
40757;SDS011;26462;47.384;19.218;2023-11-21T07:20:15;37.67;;;16.73;;
40757;SDS011;26462;47.384;19.218;2023-11-21T07:22:44;34.80;;;16.30;;
40757;SDS011;26462;47.384;19.218;2023-11-21T07:25:13;35.03;;;15.70;;
40757;SDS011;26462;47.384;19.218;2023-11-21T07:27:42;40.00;;;17.90;;
40757;SDS011;26462;47.384;19.218;2023-11-21T07:30:11;36.75;;;17.77;;
40757;SDS011;26462;47.384;19.218;2023-11-21T07:32:42;34.47;;;17.45;;
40757;SDS011;26462;47.384;19.218;2023-11-21T07:35:13;41.72;;;18.92;;
40757;SDS011;26462;47.384;19.218;2023-11-21T07:37:41;46.55;;;19.98;;
40757;SDS011;26462;47.384;19.218;2023-11-21T07:40:11;41.70;;;17.80;;
40757;SDS011;26462;47.384;19.218;2023-11-21T07:42:40;44.38;;;18.52;;
40757;SDS011;26462;47.384;19.218;2023-11-21T07:45:10;35.53;;;17.95;;
40757;SDS011;26462;47.384;19.218;2023-11-21T07:47:39;37.20;;;17.33;;
40757;SDS011;26462;47.384;19.218;2023-11-21T07:50:10;35.92;;;17.35;;
40757;SDS011;26462;47.384;19.218;2023-11-21T07:52:40;36.42;;;16.98;;
40757;SDS011;26462;47.384;19.218;2023-11-21T07:55:08;34.38;;;17.25;;
40757;SDS011;26462;47.384;19.218;2023-11-21T07:57:38;33.70;;;16.48;;
40757;SDS011;26462;47.384;19.218;2023-11-21T08:00:07;33.85;;;15.73;;
40757;SDS011;26462;47.384;19.218;2023-11-21T08:02:39;37.03;;;16.15;;
40757;SDS011;26462;47.384;19.218;2023-11-21T08:05:11;31.95;;;15.70;;
40757;SDS011;26462;47.384;19.218;2023-11-21T08:07:50;32.85;;;16.40;;
40757;SDS011;26462;47.384;19.218;2023-11-21T08:10:19;36.65;;;18.20;;
40757;SDS011;26462;47.384;19.218;2023-11-21T08:12:48;33.28;;;16.05;;
40757;SDS011;26462;47.384;19.218;2023-11-21T08:15:18;35.72;;;16.80;;
40757;SDS011;26462;47.384;19.218;2023-11-21T08:17:46;30.58;;;15.80;;
40757;SDS011;26462;47.384;19.218;2023-11-21T08:20:16;33.70;;;15.73;;
40757;SDS011;26462;47.384;19.218;2023-11-21T08:22:45;31.40;;;16.08;;
40757;SDS011;26462;47.384;19.218;2023-11-21T08:25:15;30.70;;;14.90;;
40757;SDS011;26462;47.384;19.218;2023-11-21T08:27:47;28.40;;;14.68;;
40757;SDS011;26462;47.384;19.218;2023-11-21T08:30:15;30.90;;;13.80;;
40757;SDS011;26462;47.384;19.218;2023-11-21T08:32:46;27.88;;;13.20;;
40757;SDS011;26462;47.384;19.218;2023-11-21T08:35:15;24.25;;;12.45;;
40757;SDS011;26462;47.384;19.218;2023-11-21T08:37:45;24.73;;;11.43;;
40757;SDS011;26462;47.384;19.218;2023-11-21T08:40:14;24.65;;;12.40;;
40757;SDS011;26462;47.384;19.218;2023-11-21T08:42:44;26.58;;;13.15;;
40757;SDS011;26462;47.384;19.218;2023-11-21T08:45:13;25.13;;;12.45;;
40757;SDS011;26462;47.384;19.218;2023-11-21T08:47:41;23.80;;;11.45;;
40757;SDS011;26462;47.384;19.218;2023-11-21T08:50:11;24.55;;;11.90;;
40757;SDS011;26462;47.384;19.218;2023-11-21T08:52:41;26.13;;;12.35;;
40757;SDS011;26462;47.384;19.218;2023-11-21T08:55:10;27.67;;;12.38;;
40757;SDS011;26462;47.384;19.218;2023-11-21T08:57:39;23.05;;;11.85;;
40757;SDS011;26462;47.384;19.218;2023-11-21T09:00:08;23.58;;;12.60;;
40757;SDS011;26462;47.384;19.218;2023-11-21T09:02:38;23.50;;;12.73;;
40757;SDS011;26462;47.384;19.218;2023-11-21T09:05:08;23.17;;;12.18;;
40757;SDS011;26462;47.384;19.218;2023-11-21T09:07:37;27.38;;;13.10;;
40757;SDS011;26462;47.384;19.218;2023-11-21T09:10:09;25.15;;;12.02;;
40757;SDS011;26462;47.384;19.218;2023-11-21T09:12:38;32.88;;;15.25;;
40757;SDS011;26462;47.384;19.218;2023-11-21T09:15:07;28.50;;;16.13;;
40757;SDS011;26462;47.384;19.218;2023-11-21T09:17:38;34.90;;;17.30;;
40757;SDS011;26462;47.384;19.218;2023-11-21T09:20:08;32.80;;;16.67;;
40757;SDS011;26462;47.384;19.218;2023-11-21T09:22:38;34.50;;;16.52;;
40757;SDS011;26462;47.384;19.218;2023-11-21T09:25:08;33.47;;;15.63;;
40757;SDS011;26462;47.384;19.218;2023-11-21T09:27:37;30.58;;;14.00;;
40757;SDS011;26462;47.384;19.218;2023-11-21T09:30:06;20.85;;;11.88;;
40757;SDS011;26462;47.384;19.218;2023-11-21T09:32:37;22.90;;;11.68;;
40757;SDS011;26462;47.384;19.218;2023-11-21T09:35:08;22.70;;;11.18;;
40757;SDS011;26462;47.384;19.218;2023-11-21T09:37:37;22.05;;;11.05;;
40757;SDS011;26462;47.384;19.218;2023-11-21T09:40:07;21.38;;;11.32;;
40757;SDS011;26462;47.384;19.218;2023-11-21T09:42:45;20.60;;;10.50;;
40757;SDS011;26462;47.384;19.218;2023-11-21T09:45:21;23.95;;;10.90;;
40757;SDS011;26462;47.384;19.218;2023-11-21T09:47:53;22.40;;;10.23;;
40757;SDS011;26462;47.384;19.218;2023-11-21T09:50:23;28.00;;;11.40;;
40757;SDS011;26462;47.384;19.218;2023-11-21T09:52:55;20.60;;;9.93;;
40757;SDS011;26462;47.384;19.218;2023-11-21T09:55:29;18.90;;;9.55;;
40757;SDS011;26462;47.384;19.218;2023-11-21T09:58:02;66.03;;;22.90;;
40757;SDS011;26462;47.384;19.218;2023-11-21T10:00:34;65.07;;;23.17;;
40757;SDS011;26462;47.384;19.218;2023-11-21T10:03:03;61.65;;;24.45;;
40757;SDS011;26462;47.384;19.218;2023-11-21T10:05:31;44.25;;;19.98;;
40757;SDS011;26462;47.384;19.218;2023-11-21T10:08:01;55.42;;;20.30;;
40757;SDS011;26462;47.384;19.218;2023-11-21T10:10:32;30.70;;;14.65;;
40757;SDS011;26462;47.384;19.218;2023-11-21T10:13:02;23.77;;;11.40;;
40757;SDS011;26462;47.384;19.218;2023-11-21T10:15:33;24.52;;;12.05;;
40757;SDS011;26462;47.384;19.218;2023-11-21T10:18:04;25.38;;;12.15;;
40757;SDS011;26462;47.384;19.218;2023-11-21T10:20:36;22.40;;;11.88;;
40757;SDS011;26462;47.384;19.218;2023-11-21T10:23:05;23.75;;;12.02;;
40757;SDS011;26462;47.384;19.218;2023-11-21T10:25:35;23.08;;;13.02;;
40757;SDS011;26462;47.384;19.218;2023-11-21T10:28:04;41.58;;;17.88;;
40757;SDS011;26462;47.384;19.218;2023-11-21T10:30:34;61.17;;;30.08;;
40757;SDS011;26462;47.384;19.218;2023-11-21T10:33:04;62.85;;;27.10;;
40757;SDS011;26462;47.384;19.218;2023-11-21T10:35:44;26.35;;;13.40;;
40757;SDS011;26462;47.384;19.218;2023-11-21T10:38:18;23.15;;;11.40;;
40757;SDS011;26462;47.384;19.218;2023-11-21T10:40:50;22.60;;;11.27;;
40757;SDS011;26462;47.384;19.218;2023-11-21T10:43:24;24.30;;;12.70;;
40757;SDS011;26462;47.384;19.218;2023-11-21T10:45:54;26.55;;;13.82;;
40757;SDS011;26462;47.384;19.218;2023-11-21T10:48:27;25.15;;;14.30;;
40757;SDS011;26462;47.384;19.218;2023-11-21T10:50:56;26.92;;;12.45;;
40757;SDS011;26462;47.384;19.218;2023-11-21T10:53:28;23.45;;;11.30;;
40757;SDS011;26462;47.384;19.218;2023-11-21T10:56:03;23.65;;;10.80;;
40757;SDS011;26462;47.384;19.218;2023-11-21T10:58:35;39.33;;;16.10;;
40757;SDS011;26462;47.384;19.218;2023-11-21T11:01:06;28.08;;;13.77;;
40757;SDS011;26462;47.384;19.218;2023-11-21T11:03:38;24.80;;;10.73;;
40757;SDS011;26462;47.384;19.218;2023-11-21T11:06:08;21.10;;;11.70;;
40757;SDS011;26462;47.384;19.218;2023-11-21T11:08:38;20.73;;;10.63;;
40757;SDS011;26462;47.384;19.218;2023-11-21T11:11:09;19.08;;;10.13;;
40757;SDS011;26462;47.384;19.218;2023-11-21T11:13:39;19.98;;;9.88;;
40757;SDS011;26462;47.384;19.218;2023-11-21T11:16:13;20.52;;;9.55;;
40757;SDS011;26462;47.384;19.218;2023-11-21T11:18:44;17.30;;;9.57;;
40757;SDS011;26462;47.384;19.218;2023-11-21T11:21:22;25.27;;;12.43;;
40757;SDS011;26462;47.384;19.218;2023-11-21T11:24:00;31.15;;;15.95;;
40757;SDS011;26462;47.384;19.218;2023-11-21T11:26:57;28.17;;;13.40;;
40757;SDS011;26462;47.384;19.218;2023-11-21T11:29:35;23.98;;;12.43;;
40757;SDS011;26462;47.384;19.218;2023-11-21T11:32:12;30.13;;;14.60;;
40757;SDS011;26462;47.384;19.218;2023-11-21T11:34:51;19.88;;;12.40;;
40757;SDS011;26462;47.384;19.218;2023-11-21T11:37:27;22.77;;;11.93;;
40757;SDS011;26462;47.384;19.218;2023-11-21T11:39:56;21.77;;;11.00;;
40757;SDS011;26462;47.384;19.218;2023-11-21T11:42:27;23.90;;;11.65;;
40757;SDS011;26462;47.384;19.218;2023-11-21T11:44:57;22.08;;;12.15;;
40757;SDS011;26462;47.384;19.218;2023-11-21T11:47:26;20.92;;;11.50;;
40757;SDS011;26462;47.384;19.218;2023-11-21T11:50:02;24.90;;;12.80;;
40757;SDS011;26462;47.384;19.218;2023-11-21T11:52:35;23.80;;;13.35;;
40757;SDS011;26462;47.384;19.218;2023-11-21T11:55:08;27.58;;;12.60;;
40757;SDS011;26462;47.384;19.218;2023-11-21T11:57:40;23.08;;;12.35;;
40757;SDS011;26462;47.384;19.218;2023-11-21T12:00:12;25.13;;;11.80;;
40757;SDS011;26462;47.384;19.218;2023-11-21T12:02:48;23.23;;;12.65;;
40757;SDS011;26462;47.384;19.218;2023-11-21T12:05:18;23.00;;;11.00;;
40757;SDS011;26462;47.384;19.218;2023-11-21T12:07:49;21.98;;;11.48;;
40757;SDS011;26462;47.384;19.218;2023-11-21T12:10:20;24.77;;;11.48;;
40757;SDS011;26462;47.384;19.218;2023-11-21T12:12:53;23.73;;;11.15;;
40757;SDS011;26462;47.384;19.218;2023-11-21T12:15:23;21.83;;;10.75;;
40757;SDS011;26462;47.384;19.218;2023-11-21T12:17:52;23.73;;;11.50;;
40757;SDS011;26462;47.384;19.218;2023-11-21T12:20:21;24.15;;;11.65;;
40757;SDS011;26462;47.384;19.218;2023-11-21T12:22:51;21.00;;;10.88;;
40757;SDS011;26462;47.384;19.218;2023-11-21T12:25:21;21.80;;;11.82;;
40757;SDS011;26462;47.384;19.218;2023-11-21T12:27:50;20.00;;;11.05;;
40757;SDS011;26462;47.384;19.218;2023-11-21T12:30:21;27.27;;;12.35;;
40757;SDS011;26462;47.384;19.218;2023-11-21T12:32:51;24.33;;;11.70;;
40757;SDS011;26462;47.384;19.218;2023-11-21T12:35:20;23.95;;;11.82;;
40757;SDS011;26462;47.384;19.218;2023-11-21T12:37:51;20.63;;;11.95;;
40757;SDS011;26462;47.384;19.218;2023-11-21T12:40:20;23.80;;;12.30;;
40757;SDS011;26462;47.384;19.218;2023-11-21T12:42:51;21.30;;;11.45;;
40757;SDS011;26462;47.384;19.218;2023-11-21T12:45:22;24.77;;;11.32;;
40757;SDS011;26462;47.384;19.218;2023-11-21T12:47:54;22.90;;;10.95;;
40757;SDS011;26462;47.384;19.218;2023-11-21T12:50:27;21.95;;;11.57;;
40757;SDS011;26462;47.384;19.218;2023-11-21T12:52:59;22.17;;;12.20;;
40757;SDS011;26462;47.384;19.218;2023-11-21T12:55:30;20.67;;;11.93;;
40757;SDS011;26462;47.384;19.218;2023-11-21T12:58:01;18.02;;;9.65;;
40757;SDS011;26462;47.384;19.218;2023-11-21T13:00:37;17.75;;;10.18;;
40757;SDS011;26462;47.384;19.218;2023-11-21T13:03:10;20.15;;;9.15;;
40757;SDS011;26462;47.384;19.218;2023-11-21T13:05:45;20.27;;;10.27;;
40757;SDS011;26462;47.384;19.218;2023-11-21T13:08:19;19.58;;;8.93;;
40757;SDS011;26462;47.384;19.218;2023-11-21T13:10:50;16.88;;;8.55;;
40757;SDS011;26462;47.384;19.218;2023-11-21T13:13:22;18.00;;;9.10;;
40757;SDS011;26462;47.384;19.218;2023-11-21T13:15:52;20.95;;;9.55;;
40757;SDS011;26462;47.384;19.218;2023-11-21T13:18:23;18.95;;;8.70;;
40757;SDS011;26462;47.384;19.218;2023-11-21T13:20:54;18.10;;;9.10;;
40757;SDS011;26462;47.384;19.218;2023-11-21T13:23:23;19.73;;;9.23;;
40757;SDS011;26462;47.384;19.218;2023-11-21T13:25:52;19.40;;;10.05;;
40757;SDS011;26462;47.384;19.218;2023-11-21T13:28:32;19.42;;;8.70;;
40757;SDS011;26462;47.384;19.218;2023-11-21T13:31:02;15.90;;;8.23;;
40757;SDS011;26462;47.384;19.218;2023-11-21T13:33:37;16.13;;;8.23;;
40757;SDS011;26462;47.384;19.218;2023-11-21T13:36:09;13.85;;;8.18;;
40757;SDS011;26462;47.384;19.218;2023-11-21T13:38:40;20.70;;;8.45;;
40757;SDS011;26462;47.384;19.218;2023-11-21T13:41:10;14.18;;;7.75;;
40757;SDS011;26462;47.384;19.218;2023-11-21T13:43:42;19.70;;;8.52;;
40757;SDS011;26462;47.384;19.218;2023-11-21T13:46:17;16.67;;;8.65;;
40757;SDS011;26462;47.384;19.218;2023-11-21T13:48:49;14.57;;;7.00;;
40757;SDS011;26462;47.384;19.218;2023-11-21T13:51:23;14.38;;;7.72;;
40757;SDS011;26462;47.384;19.218;2023-11-21T13:54:03;12.75;;;7.13;;
40757;SDS011;26462;47.384;19.218;2023-11-21T13:56:37;14.50;;;7.13;;
40757;SDS011;26462;47.384;19.218;2023-11-21T13:59:08;12.68;;;7.47;;
40757;SDS011;26462;47.384;19.218;2023-11-21T14:01:45;26.55;;;10.95;;
40757;SDS011;26462;47.384;19.218;2023-11-21T14:04:24;19.98;;;9.82;;
40757;SDS011;26462;47.384;19.218;2023-11-21T14:07:21;22.02;;;8.88;;
40757;SDS011;26462;47.384;19.218;2023-11-21T14:09:59;19.90;;;10.75;;
40757;SDS011;26462;47.384;19.218;2023-11-21T14:12:28;18.90;;;11.50;;
40757;SDS011;26462;47.384;19.218;2023-11-21T14:15:06;28.52;;;12.52;;
40757;SDS011;26462;47.384;19.218;2023-11-21T14:17:37;29.08;;;13.48;;
40757;SDS011;26462;47.384;19.218;2023-11-21T14:20:08;35.58;;;17.67;;
40757;SDS011;26462;47.384;19.218;2023-11-21T14:22:43;73.78;;;29.95;;
40757;SDS011;26462;47.384;19.218;2023-11-21T14:25:12;68.45;;;29.40;;
40757;SDS011;26462;47.384;19.218;2023-11-21T14:27:41;55.35;;;24.25;;
40757;SDS011;26462;47.384;19.218;2023-11-21T14:30:11;31.70;;;17.10;;
40757;SDS011;26462;47.384;19.218;2023-11-21T14:32:41;33.13;;;16.50;;